Reecon Whale — 9HA2885 — position and weather

sailwx.info

Track history (hours):
 
Tides and Currents Weather Stations Pressure Air Temp Water Temp Dewpoint Dewpoint Depression Visibility Wind Speed Wind Dir Waves Ship Positions

Reecon Whale

Last reported at 2017-Feb-23 03:05 UTC. Time now 2017-Feb-23 07:16 UTC.
Position N 36°35' E 023°20'.

Length 145 m; draft 8.2 m.

Type: Ship. MMSI: 256579000.

Date/timePositionNaut miles runAvg speedWind from/ knotsBaromVisibWave heightAir tempDewpointWater temp
2017-Feb-23 03:05N 36°35' E 023°20'914.1
2017-Feb-23 02:24N 36°43' E 023°25'1814.1
2017-Feb-23 01:08N 36°60' E 023°34'814.0
2017-Feb-23 00:33N 37°08' E 023°37'1514.3
2017-Feb-22 23:29N 37°22' E 023°42'1314.0
2017-Feb-22 22:34N 37°35' E 023°45'1414.3
2017-Feb-22 21:34N 37°48' E 023°37'7 6.4
2017-Feb-22 20:32N 37°53' E 023°32'0 0.0
2017-Feb-22 19:33N 37°53' E 023°32'0 0.0
2017-Feb-22 18:32N 37°53' E 023°32'0 0.1
2017-Feb-22 17:32N 37°53' E 023°32'0 0.0
2017-Feb-22 16:32N 37°53' E 023°32'0 0.0
2017-Feb-22 15:32N 37°53' E 023°32'0 0.0
2017-Feb-22 14:32N 37°53' E 023°32'0 0.1
2017-Feb-22 13:34N 37°53' E 023°32'1110.5
2017-Feb-22 12:33N 37°46' E 023°42'1111.2
2017-Feb-22 11:34N 37°39' E 023°53'2611.2
2017-Feb-22 09:15N 37°49' E 024°23'812.0
2017-Feb-22 08:33N 37°54' E 024°31'  
2017-Feb-14 12:33N 34°21' E 033°21'1212.5
2017-Feb-14 11:33N 34°25' E 033°06'1312.6
2017-Feb-14 10:33N 34°29' E 032°52'1212.1
2017-Feb-14 09:33N 34°33' E 032°38'1211.5
2017-Feb-14 08:33N 34°38' E 032°26'  
Track history (hours):
 
Tides and Currents Weather Stations Pressure Air Temp Water Temp Dewpoint Dewpoint Depression Visibility Wind Speed Wind Dir Waves Ship Positions

Reecon Whale

Last reported at 2017-Feb-23 03:05 UTC. Time now 2017-Feb-23 07:16 UTC.
Position N 36°35' E 023°20'.

Length 145 m; draft 8.2 m.

Type: Ship. MMSI: 256579000.

Date/timePositionNaut miles runAvg speedWind from/ knotsBaromVisibWave heightAir tempDewpointWater temp
2017-Feb-23 03:05N 36°35' E 023°20'914.1
2017-Feb-23 02:24N 36°43' E 023°25'1814.1
2017-Feb-23 01:08N 36°60' E 023°34'814.0
2017-Feb-23 00:33N 37°08' E 023°37'1514.3
2017-Feb-22 23:29N 37°22' E 023°42'1314.0
2017-Feb-22 22:34N 37°35' E 023°45'1414.3
2017-Feb-22 21:34N 37°48' E 023°37'7 6.4
2017-Feb-22 20:32N 37°53' E 023°32'0 0.0
2017-Feb-22 19:33N 37°53' E 023°32'0 0.0
2017-Feb-22 18:32N 37°53' E 023°32'0 0.1
2017-Feb-22 17:32N 37°53' E 023°32'0 0.0
2017-Feb-22 16:32N 37°53' E 023°32'0 0.0
2017-Feb-22 15:32N 37°53' E 023°32'0 0.0
2017-Feb-22 14:32N 37°53' E 023°32'0 0.1
2017-Feb-22 13:34N 37°53' E 023°32'1110.5
2017-Feb-22 12:33N 37°46' E 023°42'1111.2
2017-Feb-22 11:34N 37°39' E 023°53'2611.2
2017-Feb-22 09:15N 37°49' E 024°23'812.0
2017-Feb-22 08:33N 37°54' E 024°31'  
2017-Feb-14 12:33N 34°21' E 033°21'1212.5
2017-Feb-14 11:33N 34°25' E 033°06'1312.6
2017-Feb-14 10:33N 34°29' E 032°52'1212.1
2017-Feb-14 09:33N 34°33' E 032°38'1211.5
2017-Feb-14 08:33N 34°38' E 032°26'  

Dump ship's entire track history